Evolution — 2FKB6 — position and weather

sailwx.info

Track history (hours):
 
Tides and Currents Weather Stations Pressure Air Temp Water Temp Dewpoint Dewpoint Depression Visibility Wind Speed Wind Dir Waves Ship Positions

Evolution

Last reported at 2014-Oct-27 01:31 UTC. Time now 2014-Dec-23 03:00 UTC.
Position N 39°47' E 001°28'.
Warning: this ship's position is 57 days out of date.

Type: Sailing vessel. MMSI: 235091936.

Date/timePositionNaut miles runAvg speedWind from/ knotsBaromVisibWave heightAir tempDewpointWater temp
2014-Oct-27 01:31N 39°47' E 001°28'6 5.2
2014-Oct-27 00:19N 39°52' E 001°33'5 5.8
2014-Oct-26 23:29N 39°56' E 001°37'6 7.0
2014-Oct-26 22:33N 40°01' E 001°41'7 7.3
2014-Oct-26 21:33N 40°07' E 001°47'7 7.0
2014-Oct-26 20:33N 40°13' E 001°52'8 7.3
2014-Oct-26 19:26N 40°19' E 001°59'7 7.2
2014-Oct-26 18:28N 40°25' E 002°04'7 7.1
2014-Oct-26 17:32N 40°30' E 002°10'8 6.7
2014-Oct-26 16:24N 40°36' E 002°15'6 7.3
2014-Oct-26 15:32N 40°42' E 002°19'5 5.3
2014-Oct-26 14:31N 40°47' E 002°22'7 6.8
2014-Oct-26 13:29N 40°53' E 002°27'6 6.1
2014-Oct-26 12:31N 40°57' E 002°32'  
Track history (hours):
 
Tides and Currents Weather Stations Pressure Air Temp Water Temp Dewpoint Dewpoint Depression Visibility Wind Speed Wind Dir Waves Ship Positions

Evolution

Last reported at 2014-Oct-27 01:31 UTC. Time now 2014-Dec-23 03:00 UTC.
Position N 39°47' E 001°28'.
Warning: this ship's position is 57 days out of date.

Type: Sailing vessel. MMSI: 235091936.

Date/timePositionNaut miles runAvg speedWind from/ knotsBaromVisibWave heightAir tempDewpointWater temp
2014-Oct-27 01:31N 39°47' E 001°28'6 5.2
2014-Oct-27 00:19N 39°52' E 001°33'5 5.8
2014-Oct-26 23:29N 39°56' E 001°37'6 7.0
2014-Oct-26 22:33N 40°01' E 001°41'7 7.3
2014-Oct-26 21:33N 40°07' E 001°47'7 7.0
2014-Oct-26 20:33N 40°13' E 001°52'8 7.3
2014-Oct-26 19:26N 40°19' E 001°59'7 7.2
2014-Oct-26 18:28N 40°25' E 002°04'7 7.1
2014-Oct-26 17:32N 40°30' E 002°10'8 6.7
2014-Oct-26 16:24N 40°36' E 002°15'6 7.3
2014-Oct-26 15:32N 40°42' E 002°19'5 5.3
2014-Oct-26 14:31N 40°47' E 002°22'7 6.8
2014-Oct-26 13:29N 40°53' E 002°27'6 6.1
2014-Oct-26 12:31N 40°57' E 002°32'  

Dump ship's entire track history